Time;durP1;ratioP1;P1;durP2;ratioP2;P2;SDS_P1;SDS_P2;PMS_P1;PMS_P2;Temp;Humidity;BMP_temperature;BMP_pressure;BME280_temperature;BME280_humidity;BME280_pressure;Samples;Min_cycle;Max_cycle;Signal;HPM_P1;HPM_P2
2021/09/14 00:01:01;;;;;;;16.90;13.05;;;13.20;94.00;;;;;;5033811;28;21744;-80
2021/09/14 00:03:27;;;;;;;17.45;11.93;;;13.20;93.60;;;;;;5050266;28;20377;-81
2021/09/14 00:05:52;;;;;;;14.00;11.18;;;13.20;93.30;;;;;;5016846;28;20040;-81
2021/09/14 00:08:18;;;;;;;15.60;12.80;;;13.00;94.20;;;;;;5046132;28;20041;-80
2021/09/14 00:10:43;;;;;;;17.55;13.00;;;13.00;94.30;;;;;;5032706;28;20377;-82
2021/09/14 00:13:09;;;;;;;15.52;12.95;;;12.90;94.40;;;;;;5050204;28;20032;-80
2021/09/14 00:15:35;;;;;;;14.95;12.80;;;12.90;95.50;;;;;;5018695;28;20029;-81
2021/09/14 00:18:00;;;;;;;15.48;11.40;;;12.90;94.60;;;;;;5019154;28;20036;-81
2021/09/14 00:20:26;;;;;;;16.88;12.95;;;12.80;94.00;;;;;;5030302;28;20041;-80
2021/09/14 00:22:52;;;;;;;16.58;12.48;;;12.70;95.30;;;;;;5032322;28;20029;-80
2021/09/14 00:25:17;;;;;;;15.80;12.57;;;12.70;94.50;;;;;;5018594;28;20067;-80
2021/09/14 00:27:43;;;;;;;16.65;12.80;;;12.80;96.90;;;;;;5033376;28;20024;-80
2021/09/14 00:30:09;;;;;;;14.23;12.50;;;12.70;94.90;;;;;;5033959;28;20033;-80
2021/09/14 00:32:34;;;;;;;19.13;13.52;;;12.70;94.80;;;;;;5049605;28;20028;-80
2021/09/14 00:35:00;;;;;;;15.25;12.98;;;12.70;94.90;;;;;;5049695;28;20032;-80
2021/09/14 00:37:25;;;;;;;16.75;12.88;;;12.70;96.30;;;;;;5017343;28;20031;-80
2021/09/14 00:39:51;;;;;;;15.80;12.38;;;12.70;97.00;;;;;;5033766;28;20044;-81
2021/09/14 00:42:16;;;;;;;17.13;13.73;;;12.70;97.40;;;;;;5036799;28;20029;-80
2021/09/14 00:44:42;;;;;;;15.70;12.25;;;12.70;95.40;;;;;;5036014;28;20095;-80
2021/09/14 00:47:14;;;;;;;16.92;12.75;;;12.60;96.10;;;;;;5033746;28;20021;-80
2021/09/14 00:49:40;;;;;;;15.63;13.25;;;12.60;96.40;;;;;;5022819;28;20541;-80
2021/09/14 00:52:07;;;;;;;22.33;13.50;;;12.60;97.80;;;;;;5035185;28;20024;-80
2021/09/14 00:54:36;;;;;;;16.77;13.43;;;12.60;96.20;;;;;;5037287;28;20097;-80
2021/09/14 00:57:02;;;;;;;16.90;13.55;;;12.60;97.10;;;;;;5030981;28;20025;-80
2021/09/14 00:59:27;;;;;;;17.83;13.18;;;12.50;96.20;;;;;;5035094;28;20040;-80
2021/09/14 01:01:56;;;;;;;15.93;13.23;;;12.50;96.20;;;;;;5034708;28;20533;-80
2021/09/14 01:04:21;;;;;;;14.93;13.00;;;12.40;95.40;;;;;;5034293;28;20131;-80
2021/09/14 01:06:47;;;;;;;15.32;12.55;;;12.30;95.70;;;;;;5020468;28;20139;-80
2021/09/14 01:09:13;;;;;;;15.25;13.10;;;12.30;98.20;;;;;;5052289;28;20474;-80
2021/09/14 01:11:40;;;;;;;18.98;14.48;;;12.30;97.70;;;;;;5023813;28;20028;-80
2021/09/14 01:14:06;;;;;;;18.80;13.95;;;12.40;99.30;;;;;;5032048;28;20104;-80
2021/09/14 01:16:33;;;;;;;16.98;13.95;;;12.30;99.10;;;;;;5016418;28;20404;-80
2021/09/14 01:18:59;;;;;;;18.38;14.05;;;12.20;97.00;;;;;;5034579;28;20029;-80
2021/09/14 01:21:25;;;;;;;25.55;13.85;;;12.20;96.50;;;;;;5021105;28;20447;-80
2021/09/14 01:23:50;;;;;;;17.23;13.35;;;12.10;96.90;;;;;;5021395;28;20079;-80
2021/09/14 01:26:17;;;;;;;19.80;14.38;;;12.10;98.20;;;;;;5050492;28;20039;-82
2021/09/14 01:28:42;;;;;;;14.23;12.73;;;12.10;98.30;;;;;;5018622;28;20033;-79
2021/09/14 01:31:08;;;;;;;16.35;13.70;;;12.20;98.10;;;;;;5019870;28;20377;-80
2021/09/14 01:33:33;;;;;;;18.48;13.70;;;12.20;97.70;;;;;;5037680;28;20772;-79
2021/09/14 01:35:59;;;;;;;13.65;12.15;;;12.00;96.60;;;;;;5052061;28;20024;-80
2021/09/14 01:38:24;;;;;;;18.42;13.57;;;12.00;97.10;;;;;;5023015;28;20476;-80
2021/09/14 01:40:50;;;;;;;20.50;13.63;;;12.00;98.00;;;;;;5033910;28;20025;-79
2021/09/14 01:43:17;;;;;;;23.17;14.98;;;11.90;97.00;;;;;;5051051;28;20116;-79
2021/09/14 01:45:42;;;;;;;17.80;13.70;;;12.00;97.70;;;;;;5035172;28;20563;-79
2021/09/14 01:48:08;;;;;;;18.10;13.15;;;12.00;97.20;;;;;;5033831;28;20036;-80
2021/09/14 01:50:33;;;;;;;19.58;14.40;;;11.90;97.20;;;;;;5030902;28;20063;-80
2021/09/14 01:53:01;;;;;;;17.42;14.07;;;12.00;99.00;;;;;;5050663;28;20396;-80
2021/09/14 01:55:27;;;;;;;19.05;13.73;;;12.00;98.10;;;;;;5018877;28;20047;-80
2021/09/14 01:57:53;;;;;;;21.45;14.38;;;12.10;99.90;;;;;;5033848;28;20024;-80
2021/09/14 02:00:22;;;;;;;21.92;15.30;;;12.10;99.90;;;;;;5033108;28;20059;-79
2021/09/14 02:03:15;;;;;;;18.00;14.18;;;12.00;98.40;;;;;;5019341;28;20060;-79
2021/09/14 02:59:31;;;;;;;23.98;15.93;;;11.60;99.30;;;;;;5051944;28;20059;-80
2021/09/14 03:01:58;;;;;;;21.27;15.57;;;11.60;98.90;;;;;;5018431;28;20060;-79
2021/09/14 03:04:24;;;;;;;21.02;16.08;;;11.70;99.90;;;;;;5017752;28;20041;-80
2021/09/14 03:06:50;;;;;;;23.52;15.70;;;11.70;99.90;;;;;;5050379;28;20054;-80
2021/09/14 03:09:15;;;;;;;22.33;16.35;;;11.70;98.70;;;;;;5034243;28;20028;-80
2021/09/14 03:11:41;;;;;;;23.45;15.70;;;11.70;99.40;;;;;;5031714;28;20024;-79
2021/09/14 03:14:06;;;;;;;22.88;16.75;;;11.70;99.30;;;;;;5032352;28;20534;-80
2021/09/14 03:16:32;;;;;;;20.73;14.98;;;11.70;99.90;;;;;;5049251;28;20036;-78
2021/09/14 03:18:57;;;;;;;20.45;14.77;;;11.60;99.60;;;;;;5033776;28;20040;-79
2021/09/14 03:21:23;;;;;;;20.20;16.42;;;11.50;99.60;;;;;;5035977;28;20048;-79
2021/09/14 03:23:48;;;;;;;21.95;15.93;;;11.60;99.90;;;;;;5049374;28;20033;-80
2021/09/14 03:26:14;;;;;;;21.13;15.45;;;11.60;99.90;;;;;;5048285;28;20029;-80
2021/09/14 03:28:40;;;;;;;22.85;14.63;;;11.50;99.90;;;;;;5033974;28;20473;-79
2021/09/14 03:31:05;;;;;;;20.27;14.38;;;11.40;99.10;;;;;;5033784;28;20036;-79
2021/09/14 03:33:31;;;;;;;19.98;15.40;;;11.40;98.80;;;;;;5035680;28;20090;-78
2021/09/14 03:35:56;;;;;;;18.95;15.52;;;11.40;99.60;;;;;;5033529;28;20036;-79
2021/09/14 03:38:22;;;;;;;18.80;15.55;;;11.40;99.70;;;;;;5031437;28;20373;-79
2021/09/14 03:40:48;;;;;;;23.73;15.70;;;11.50;99.70;;;;;;5020438;28;20115;-79
2021/09/14 03:43:13;;;;;;;17.70;13.95;;;11.40;99.90;;;;;;5033324;28;20036;-79
2021/09/14 03:45:40;;;;;;;19.95;14.52;;;11.40;99.80;;;;;;5031320;28;20111;-79
2021/09/14 03:48:06;;;;;;;20.48;15.07;;;11.30;98.90;;;;;;5030474;28;20481;-78
2021/09/14 03:50:32;;;;;;;23.55;16.70;;;11.30;99.90;;;;;;5033396;28;20039;-78
2021/09/14 03:52:57;;;;;;;17.60;14.27;;;11.30;99.40;;;;;;5031347;28;20060;-79
2021/09/14 03:55:23;;;;;;;20.40;14.88;;;11.30;99.80;;;;;;5016762;28;20074;-80
2021/09/14 03:57:48;;;;;;;19.50;15.13;;;11.30;99.50;;;;;;5050401;28;20365;-80
2021/09/14 04:00:14;;;;;;;21.45;16.30;;;11.30;99.70;;;;;;5031595;28;20496;-80
2021/09/14 04:02:51;;;;;;;22.92;16.17;;;11.30;98.30;;;;;;5033067;28;20024;-80
2021/09/14 04:05:36;;;;;;;25.27;15.82;;;11.30;99.10;;;;;;5051137;28;20025;-81
2021/09/14 04:10:38;;;;;;;21.33;15.68;;;11.30;99.80;;;;;;5046622;28;20094;-79
2021/09/14 04:13:04;;;;;;;20.98;15.40;;;11.30;99.40;;;;;;5018462;28;20036;-80
2021/09/14 04:15:30;;;;;;;19.35;14.88;;;11.30;99.80;;;;;;5036980;28;20021;-80
2021/09/14 04:17:55;;;;;;;19.17;16.20;;;11.30;99.20;;;;;;5036838;28;20463;-79
2021/09/14 04:20:20;;;;;;;17.95;14.90;;;11.30;99.90;;;;;;5037628;28;20033;-79
2021/09/14 04:22:46;;;;;;;20.90;15.50;;;11.20;99.90;;;;;;5052270;28;20365;-81
2021/09/14 04:25:12;;;;;;;18.35;14.57;;;11.10;98.70;;;;;;5019504;28;21256;-81
2021/09/14 04:27:37;;;;;;;19.58;15.00;;;11.20;99.20;;;;;;5038478;28;20030;-80
2021/09/14 04:30:05;;;;;;;20.23;15.52;;;11.10;99.80;;;;;;5020162;28;20020;-80
2021/09/14 04:32:31;;;;;;;18.50;14.60;;;11.10;99.00;;;;;;5035300;28;20071;-80
2021/09/14 04:34:56;;;;;;;20.27;16.00;;;11.00;99.20;;;;;;5036434;28;20525;-80
2021/09/14 04:37:23;;;;;;;21.17;15.25;;;11.00;98.70;;;;;;5037720;28;20032;-79
2021/09/14 04:39:49;;;;;;;20.85;16.30;;;11.00;99.20;;;;;;5036648;28;20040;-81
2021/09/14 04:42:14;;;;;;;19.90;15.60;;;11.00;99.00;;;;;;5046455;28;20111;-80
2021/09/14 04:44:40;;;;;;;20.10;15.52;;;11.00;99.80;;;;;;5051875;28;20035;-80
2021/09/14 04:47:05;;;;;;;21.00;15.95;;;11.00;99.90;;;;;;5031721;28;20427;-80
2021/09/14 04:49:31;;;;;;;23.55;15.60;;;11.10;99.20;;;;;;5026095;28;20496;-80
2021/09/14 04:51:58;;;;;;;20.85;15.25;;;11.00;98.40;;;;;;5036526;28;20025;-80
2021/09/14 04:54:23;;;;;;;21.80;16.80;;;11.10;99.60;;;;;;5037668;28;20488;-81
2021/09/14 04:56:49;;;;;;;20.05;17.00;;;11.10;98.70;;;;;;5022151;28;20028;-80
2021/09/14 04:59:14;;;;;;;20.95;16.35;;;11.00;99.00;;;;;;5032492;28;20111;-81
2021/09/14 05:01:40;;;;;;;22.90;16.15;;;11.00;99.60;;;;;;5047889;28;20129;-79
2021/09/14 05:04:05;;;;;;;20.17;16.10;;;10.90;98.90;;;;;;5035039;28;20036;-80
2021/09/14 05:06:31;;;;;;;20.48;16.45;;;11.00;99.40;;;;;;5022808;28;20728;-80
2021/09/14 05:08:56;;;;;;;25.30;16.77;;;11.00;98.90;;;;;;5022650;28;20036;-81
2021/09/14 05:11:22;;;;;;;22.60;16.48;;;11.00;99.90;;;;;;5019218;28;20033;-80
2021/09/14 05:13:49;;;;;;;24.77;16.73;;;11.00;99.90;;;;;;5036025;28;20041;-80
2021/09/14 05:16:14;;;;;;;28.48;17.38;;;11.00;99.90;;;;;;5034084;28;20111;-79
2021/09/14 05:18:43;;;;;;;22.10;16.80;;;11.10;99.70;;;;;;5032778;28;20135;-80
2021/09/14 05:21:09;;;;;;;18.67;13.93;;;11.10;99.90;;;;;;5034915;28;20527;-79
2021/09/14 05:23:34;;;;;;;19.20;15.07;;;11.10;99.90;;;;;;5017480;28;20052;-82
2021/09/14 05:26:01;;;;;;;19.25;15.40;;;11.20;99.70;;;;;;5036418;28;20108;-80
2021/09/14 05:29:29;;;;;;;21.73;16.02;;;11.10;99.90;;;;;;5027094;28;20443;-80
2021/09/14 05:31:55;;;;;;;29.58;16.38;;;11.10;99.90;;;;;;5054272;28;20492;-81
2021/09/14 05:34:21;;;;;;;22.98;15.15;;;11.10;99.90;;;;;;5018497;28;20720;-82
2021/09/14 05:36:47;;;;;;;20.58;16.88;;;11.10;99.10;;;;;;5035314;28;20037;-80
2021/09/14 05:39:12;;;;;;;24.02;17.23;;;11.10;99.90;;;;;;5034225;28;20024;-80
2021/09/14 05:41:38;;;;;;;22.92;16.90;;;11.00;98.90;;;;;;5018769;28;20029;-80
2021/09/14 05:44:04;;;;;;;21.75;17.65;;;11.00;99.90;;;;;;5035799;28;20032;-80
2021/09/14 05:46:30;;;;;;;21.08;17.27;;;11.10;99.90;;;;;;5020519;28;20040;-81
2021/09/14 05:48:55;;;;;;;26.70;18.48;;;11.20;99.90;;;;;;5052539;28;20032;-81
2021/09/14 05:51:21;;;;;;;23.70;19.30;;;11.20;99.90;;;;;;5033815;28;20041;-82
2021/09/14 05:53:46;;;;;;;23.73;17.60;;;11.30;99.90;;;;;;5034151;28;20029;-81
2021/09/14 05:56:12;;;;;;;20.00;14.25;;;11.30;99.90;;;;;;5024184;28;20139;-80
2021/09/14 05:58:38;;;;;;;24.35;17.92;;;11.50;99.10;;;;;;5038093;28;20071;-82
2021/09/14 06:01:03;;;;;;;23.73;18.33;;;11.60;99.90;;;;;;5031834;28;20029;-83
2021/09/14 06:03:29;;;;;;;27.17;19.85;;;11.50;99.90;;;;;;5017225;28;20392;-81
2021/09/14 06:05:56;;;;;;;29.98;20.67;;;11.60;99.70;;;;;;5036897;28;20085;-81
2021/09/14 06:08:25;;;;;;;27.83;20.77;;;11.60;99.90;;;;;;5017261;28;20037;-81
2021/09/14 06:10:50;;;;;;;30.58;20.38;;;11.60;99.90;;;;;;5052315;28;20108;-80
2021/09/14 06:13:16;;;;;;;37.95;25.23;;;11.70;99.90;;;;;;5033010;28;20107;-80
2021/09/14 06:15:41;;;;;;;40.03;23.77;;;11.70;99.90;;;;;;5020301;28;20036;-82
2021/09/14 06:18:07;;;;;;;33.20;23.55;;;11.90;99.90;;;;;;5043870;28;20059;-81
2021/09/14 06:20:32;;;;;;;34.72;23.00;;;11.90;99.90;;;;;;5029922;28;20032;-80
2021/09/14 06:22:58;;;;;;;39.00;23.15;;;12.00;99.90;;;;;;5036913;28;20029;-80
2021/09/14 06:25:44;;;;;;;33.28;23.85;;;12.00;99.90;;;;;;5037052;28;20043;-80
2021/09/14 06:28:09;;;;;;;40.53;25.63;;;12.10;99.90;;;;;;5031888;28;20423;-80
2021/09/14 06:30:36;;;;;;;32.40;23.92;;;12.20;99.90;;;;;;5034426;28;20028;-80
2021/09/14 06:33:01;;;;;;;32.15;23.73;;;12.30;99.90;;;;;;5032308;28;20032;-80
2021/09/14 06:35:27;;;;;;;39.88;24.40;;;12.30;99.90;;;;;;5036297;28;20491;-81
2021/09/14 06:37:52;;;;;;;39.88;24.20;;;12.30;99.90;;;;;;5024360;28;20055;-81
2021/09/14 06:40:18;;;;;;;31.13;23.88;;;12.50;99.90;;;;;;5033029;28;20017;-80
2021/09/14 06:42:44;;;;;;;38.38;24.13;;;12.60;99.90;;;;;;5035037;28;20035;-81
2021/09/14 06:45:15;;;;;;;37.63;26.33;;;12.60;99.90;;;;;;5049818;28;20533;-81
2021/09/14 06:47:41;;;;;;;35.38;24.05;;;12.60;99.90;;;;;;5020046;28;20040;-81
2021/09/14 06:50:07;;;;;;;30.48;20.38;;;12.70;99.90;;;;;;5047217;28;20057;-81
2021/09/14 06:52:33;;;;;;;38.05;24.75;;;12.80;99.90;;;;;;5034311;28;20025;-81
2021/09/14 06:54:58;;;;;;;41.80;27.67;;;13.00;99.90;;;;;;5046353;28;20028;-82
2021/09/14 06:57:24;;;;;;;34.22;24.67;;;13.10;99.90;;;;;;5032646;28;20484;-81
2021/09/14 06:59:49;;;;;;;35.38;25.48;;;13.20;99.90;;;;;;5032289;28;20033;-81
2021/09/14 07:02:17;;;;;;;31.60;23.15;;;13.40;99.90;;;;;;5031539;28;20028;-82
2021/09/14 07:04:42;;;;;;;32.42;24.55;;;13.50;99.90;;;;;;5015431;28;20477;-82
2021/09/14 07:07:08;;;;;;;36.20;28.35;;;13.70;99.90;;;;;;5049282;28;20028;-81
2021/09/14 07:09:36;;;;;;;37.40;24.85;;;13.60;99.90;;;;;;5033897;28;20078;-81
2021/09/14 07:12:02;;;;;;;41.38;27.00;;;13.60;99.90;;;;;;5033700;28;20031;-81
2021/09/14 07:14:27;;;;;;;41.75;27.33;;;13.90;99.90;;;;;;5034510;28;20392;-81
2021/09/14 07:16:53;;;;;;;36.90;27.00;;;14.00;99.90;;;;;;5033121;28;20020;-81
2021/09/14 07:19:20;;;;;;;33.75;24.92;;;14.20;99.90;;;;;;5028402;28;20362;-82
2021/09/14 07:21:46;;;;;;;31.95;23.58;;;14.30;99.90;;;;;;5033350;28;20068;-81
2021/09/14 07:24:11;;;;;;;36.50;24.50;;;14.30;99.90;;;;;;5035719;28;20297;-81
2021/09/14 07:26:51;;;;;;;28.70;21.10;;;14.30;99.90;;;;;;5035602;28;20441;-81
2021/09/14 07:29:16;;;;;;;32.75;22.30;;;14.50;99.90;;;;;;5033575;28;20032;-81
2021/09/14 07:31:44;;;;;;;37.05;24.02;;;14.50;99.90;;;;;;5049762;28;20043;-81
2021/09/14 07:34:11;;;;;;;29.05;22.30;;;14.70;99.90;;;;;;5033564;28;20201;-81
2021/09/14 07:36:43;;;;;;;29.45;21.35;;;14.80;99.90;;;;;;5030840;28;20039;-82
2021/09/14 07:39:09;;;;;;;26.23;20.35;;;14.90;99.90;;;;;;5015821;28;20163;-81
2021/09/14 07:41:34;;;;;;;24.33;19.50;;;15.00;99.90;;;;;;5017581;28;20120;-81
2021/09/14 07:44:00;;;;;;;24.80;20.08;;;15.20;99.90;;;;;;5033391;28;20052;-81
2021/09/14 07:46:26;;;;;;;22.48;18.60;;;15.30;99.90;;;;;;5035559;28;20028;-82
2021/09/14 07:48:51;;;;;;;22.95;18.13;;;15.40;99.90;;;;;;5034540;28;20024;-82
2021/09/14 07:51:17;;;;;;;19.42;15.02;;;15.70;99.90;;;;;;5031859;28;20086;-81
2021/09/14 07:53:43;;;;;;;20.33;14.68;;;15.70;99.90;;;;;;5046860;28;20055;-81
2021/09/14 07:56:08;;;;;;;15.68;13.15;;;15.90;99.90;;;;;;5032153;28;20365;-82
2021/09/14 07:58:34;;;;;;;16.90;13.63;;;16.00;99.90;;;;;;5031724;28;20029;-82
2021/09/14 08:01:02;;;;;;;14.23;12.73;;;16.10;99.90;;;;;;5033693;28;20442;-81
2021/09/14 08:03:28;;;;;;;14.82;12.10;;;16.30;99.60;;;;;;5049658;28;20040;-81
2021/09/14 08:05:54;;;;;;;16.65;12.27;;;16.40;99.90;;;;;;5034647;28;20040;-82
2021/09/14 08:08:19;;;;;;;15.70;10.85;;;16.50;99.90;;;;;;5005920;28;20449;-82
2021/09/14 08:10:45;;;;;;;15.25;11.15;;;16.60;99.90;;;;;;5011888;28;20025;-82
2021/09/14 08:13:16;;;;;;;14.73;11.68;;;16.70;99.90;;;;;;5018053;28;20035;-82
2021/09/14 08:15:42;;;;;;;9.82;8.93;;;16.80;99.90;;;;;;5033590;28;20106;-82
2021/09/14 08:18:21;;;;;;;12.00;10.00;;;17.00;99.10;;;;;;5016937;28;20569;-82
2021/09/14 08:20:46;;;;;;;10.43;9.38;;;17.20;99.50;;;;;;5031025;28;20128;-82
2021/09/14 08:23:12;;;;;;;18.00;10.40;;;17.30;98.70;;;;;;5014144;28;20113;-82
2021/09/14 08:25:38;;;;;;;13.02;9.45;;;17.50;98.60;;;;;;5048628;28;20025;-82
2021/09/14 08:28:04;;;;;;;16.63;9.25;;;17.60;99.00;;;;;;5016238;28;20572;-82
2021/09/14 08:30:31;;;;;;;9.35;8.25;;;17.70;98.80;;;;;;5017885;28;20060;-82
2021/09/14 08:32:58;;;;;;;12.10;9.20;;;17.90;98.80;;;;;;5015503;28;20511;-83
2021/09/14 08:35:23;;;;;;;9.65;8.63;;;17.90;99.20;;;;;;5018676;28;20020;-83
2021/09/14 08:37:49;;;;;;;10.68;8.98;;;18.00;98.80;;;;;;5017385;28;20111;-82
2021/09/14 08:40:16;;;;;;;10.85;8.77;;;18.00;99.70;;;;;;5015601;28;20017;-83
2021/09/14 08:42:41;;;;;;;10.82;7.70;;;18.10;98.60;;;;;;5015298;28;20025;-82
2021/09/14 08:45:08;;;;;;;8.07;5.88;;;18.20;99.70;;;;;;5032069;28;20052;-82
2021/09/14 08:47:38;;;;;;;9.40;7.18;;;18.50;97.40;;;;;;5028889;28;20028;-82
2021/09/14 08:50:08;;;;;;;21.60;6.18;;;18.60;97.80;;;;;;5015845;28;20052;-82
2021/09/14 08:52:37;;;;;;;8.73;7.18;;;18.90;96.80;;;;;;5011862;28;20108;-82
2021/09/14 08:55:03;;;;;;;11.70;7.95;;;19.00;97.30;;;;;;5016888;28;20036;-82
2021/09/14 08:57:38;;;;;;;8.07;6.82;;;19.10;97.30;;;;;;5006996;28;20036;-84
2021/09/14 09:00:07;;;;;;;7.13;6.43;;;19.10;97.90;;;;;;5045393;28;20187;-83
2021/09/14 09:02:33;;;;;;;9.27;6.18;;;19.40;96.70;;;;;;5036537;28;20051;-84
2021/09/14 09:05:04;;;;;;;7.22;6.40;;;19.50;96.30;;;;;;5025617;28;20504;-83
2021/09/14 09:07:34;;;;;;;7.22;5.78;;;20.10;95.90;;;;;;5038132;28;20508;-84
2021/09/14 09:10:29;;;;;;;7.30;6.55;;;20.30;95.90;;;;;;5019434;28;20028;-83
2021/09/14 09:12:55;;;;;;;14.15;6.72;;;19.70;98.30;;;;;;5018601;28;20037;-83
2021/09/14 09:15:30;;;;;;;11.07;7.90;;;19.70;98.30;;;;;;5038550;28;20036;-83
2021/09/14 09:18:07;;;;;;;9.00;6.72;;;19.60;97.70;;;;;;5051342;28;20082;-84
2021/09/14 09:20:34;;;;;;;11.48;8.23;;;20.10;97.10;;;;;;5015677;28;20074;-83
2021/09/14 09:23:01;;;;;;;8.07;5.85;;;20.30;97.10;;;;;;5038366;28;20938;-83
2021/09/14 09:25:36;;;;;;;6.10;5.15;;;20.70;96.00;;;;;;5021274;28;20468;-84
2021/09/14 09:28:07;;;;;;;6.68;5.57;;;21.70;94.70;;;;;;5016563;28;20027;-83
2021/09/14 09:30:38;;;;;;;7.28;6.47;;;22.10;93.80;;;;;;5022149;28;20036;-84
2021/09/14 09:33:07;;;;;;;6.32;4.72;;;21.70;94.90;;;;;;5020699;28;20059;-84
2021/09/14 09:35:38;;;;;;;6.63;5.20;;;22.00;94.50;;;;;;5019667;28;20032;-83
2021/09/14 09:38:13;;;;;;;8.77;5.57;;;22.10;95.40;;;;;;5034107;28;20435;-84
2021/09/14 09:40:42;;;;;;;6.95;5.18;;;22.50;93.90;;;;;;5018921;28;20024;-83
2021/09/14 09:43:08;;;;;;;5.05;4.65;;;22.10;94.50;;;;;;5020833;28;20441;-83
2021/09/14 09:45:44;;;;;;;7.43;5.15;;;22.20;94.30;;;;;;5052156;28;20033;-83
2021/09/14 09:48:19;;;;;;;8.38;4.22;;;22.20;94.90;;;;;;5021084;28;20044;-83
2021/09/14 09:50:46;;;;;;;10.50;5.32;;;22.70;94.10;;;;;;5037995;28;20736;-86
2021/09/14 09:53:11;;;;;;;4.70;4.30;;;22.90;93.30;;;;;;5022175;28;20532;-86
2021/09/14 09:55:39;;;;;;;7.03;4.28;;;22.60;94.00;;;;;;5025786;28;20059;-84
2021/09/14 09:58:05;;;;;;;8.40;5.40;;;22.40;95.10;;;;;;5027014;28;20028;-86
2021/09/14 10:00:33;;;;;;;4.43;4.03;;;22.70;94.70;;;;;;5023080;28;20112;-85
2021/09/14 10:03:04;;;;;;;4.63;4.13;;;22.60;94.50;;;;;;5039336;28;20033;-86
2021/09/14 10:05:34;;;;;;;10.07;5.00;;;22.80;95.70;;;;;;5025317;28;20111;-86
2021/09/14 10:08:09;;;;;;;5.28;4.43;;;22.70;94.80;;;;;;5038426;28;20488;-86
2021/09/14 10:10:38;;;;;;;6.90;4.60;;;22.70;95.20;;;;;;5018910;28;20515;-86
2021/09/14 10:13:05;;;;;;;7.30;4.30;;;22.80;95.60;;;;;;5022112;28;20403;-86
2021/09/14 10:15:43;;;;;;;4.22;3.30;;;22.90;94.10;;;;;;5037688;28;20025;-86
2021/09/14 10:18:09;;;;;;;6.38;4.03;;;23.70;93.50;;;;;;5020248;28;20479;-85
2021/09/14 10:20:42;;;;;;;6.07;3.78;;;24.50;92.50;;;;;;5020209;28;20043;-85
2021/09/14 10:23:24;;;;;;;5.97;3.35;;;23.80;94.00;;;;;;5021628;28;20461;-85
2021/09/14 10:26:15;;;;;;;5.45;3.78;;;24.90;91.20;;;;;;5011454;28;20196;-85
2021/09/14 10:28:45;;;;;;;3.55;3.13;;;25.50;90.50;;;;;;5034572;28;20059;-85
2021/09/14 10:31:24;;;;;;;4.80;3.60;;;24.70;92.00;;;;;;5020478;28;20029;-84
2021/09/14 10:34:17;;;;;;;3.88;3.50;;;25.00;91.40;;;;;;5008903;28;20534;-85
2021/09/14 10:36:58;;;;;;;8.40;4.70;;;25.80;90.80;;;;;;5032861;28;20088;-85
2021/09/14 10:39:24;;;;;;;5.47;4.72;;;25.80;91.10;;;;;;5037857;28;20120;-83
2021/09/14 10:41:53;;;;;;;4.88;4.47;;;25.30;91.30;;;;;;5037054;28;20028;-87
2021/09/14 10:44:31;;;;;;;5.65;4.97;;;25.30;92.70;;;;;;5025056;28;20036;-84
2021/09/14 10:47:04;;;;;;;4.88;3.40;;;25.40;91.60;;;;;;5021314;28;20029;-84
2021/09/14 10:50:00;;;;;;;4.05;3.58;;;25.20;92.20;;;;;;5023699;28;20029;-86
2021/09/14 10:52:41;;;;;;;3.57;3.20;;;25.70;91.20;;;;;;5037438;28;20044;-86
2021/09/14 10:55:07;;;;;;;7.45;5.07;;;26.00;90.50;;;;;;5051482;28;20041;-85
2021/09/14 10:57:36;;;;;;;4.55;4.05;;;25.70;91.80;;;;;;5050756;28;20488;-86
2021/09/14 11:00:15;;;;;;;3.42;3.13;;;25.60;91.60;;;;;;5018548;28;20071;-86
2021/09/14 11:02:40;;;;;;;8.13;5.35;;;26.40;90.00;;;;;;5022688;28;20032;-86
2021/09/14 11:05:07;;;;;;;7.32;6.13;;;26.00;91.90;;;;;;5018831;28;20033;-87
2021/09/14 11:07:32;;;;;;;11.43;5.57;;;25.20;93.70;;;;;;5022911;28;20028;-86
2021/09/14 11:09:59;;;;;;;7.53;4.03;;;25.60;91.40;;;;;;5021705;28;20029;-87
2021/09/14 11:12:27;;;;;;;7.38;4.95;;;26.20;90.60;;;;;;5027210;28;20040;-87
2021/09/14 11:14:53;;;;;;;9.02;6.18;;;25.80;92.90;;;;;;5020188;28;20046;-86
2021/09/14 11:17:22;;;;;;;5.47;4.93;;;25.50;93.50;;;;;;5042716;28;20514;-87
2021/09/14 11:19:51;;;;;;;4.07;3.63;;;25.20;94.10;;;;;;5030663;28;20028;-87
2021/09/14 11:22:28;;;;;;;8.52;5.10;;;25.90;92.60;;;;;;5028981;28;20086;-87
2021/09/14 11:24:56;;;;;;;8.10;5.00;;;26.40;91.40;;;;;;5017726;28;20041;-86
2021/09/14 11:27:23;;;;;;;5.53;3.72;;;26.90;91.10;;;;;;5001607;28;20703;-88
2021/09/14 11:29:49;;;;;;;6.07;3.47;;;27.60;88.80;;;;;;5022595;28;20024;-88
2021/09/14 11:32:15;;;;;;;7.78;5.20;;;28.20;85.20;;;;;;5018721;28;20192;-88
2021/09/14 11:34:43;;;;;;;5.85;4.00;;;27.90;87.50;;;;;;5022331;28;20100;-88
2021/09/14 11:37:09;;;;;;;6.45;4.50;;;27.40;89.20;;;;;;5023115;28;20037;-89
2021/09/14 11:39:41;;;;;;;3.50;3.20;;;27.50;89.40;;;;;;5004550;28;20063;-88
2021/09/14 11:42:26;;;;;;;4.32;3.00;;;28.50;83.80;;;;;;5011632;28;20029;-88
2021/09/14 11:45:07;;;;;;;3.60;3.30;;;29.00;83.10;;;;;;5019517;28;20035;-87
2021/09/14 11:47:40;;;;;;;4.28;3.30;;;28.60;84.20;;;;;;5026949;28;20758;-87
2021/09/14 11:50:22;;;;;;;5.60;3.97;;;27.90;87.00;;;;;;5022750;28;20055;-85
2021/09/14 11:53:22;;;;;;;4.18;3.78;;;29.10;82.80;;;;;;5020669;28;20112;-87
2021/09/14 11:56:21;;;;;;;5.88;4.57;;;28.60;84.60;;;;;;5010050;28;20092;-87
2021/09/14 11:59:01;;;;;;;5.88;3.95;;;27.90;88.50;;;;;;5002705;28;20029;-88
2021/09/14 12:01:38;;;;;;;5.30;3.90;;;28.00;88.00;;;;;;5003299;28;20107;-86
2021/09/14 12:04:34;;;;;;;8.32;5.28;;;28.40;84.90;;;;;;4987749;28;20022;-87
2021/09/14 12:11:14;;;;;;;4.45;3.38;;;28.40;87.90;;;;;;5023307;28;20051;-87
2021/09/14 12:14:41;;;;;;;;;;;;;;;;;;;;;
2021/09/14 12:21:56;;;;;;;;;;;;;;;;;;;;;
2021/09/14 12:32:00;;;;;;;;;;;27.90;91.50;;;;;;5032402;22;20566;-92
2021/09/14 12:34:36;;;;;;;;;;;28.10;91.80;;;;;;5012514;28;19914;-91
2021/09/14 12:37:04;;;;;;;4.63;3.55;;;28.30;90.80;;;;;;5014006;28;19984;-90
2021/09/14 12:39:30;;;;;;;4.72;3.65;;;29.60;85.10;;;;;;5013629;28;20037;-91
2021/09/14 12:41:55;;;;;;;4.65;3.00;;;29.40;89.70;;;;;;5015743;28;20041;-91
2021/09/14 12:44:21;;;;;;;6.28;3.35;;;29.90;83.30;;;;;;5013956;28;20052;-95
2021/09/14 12:46:47;;;;;;;3.08;2.88;;;30.20;82.90;;;;;;4991379;28;20120;-91
2021/09/14 12:49:13;;;;;;;3.95;2.85;;;31.70;75.10;;;;;;5018121;28;20187;-91
2021/09/14 12:51:39;;;;;;;2.45;2.25;;;32.70;69.80;;;;;;5017739;28;20033;-92
2021/09/14 12:54:05;;;;;;;2.50;2.30;;;32.40;68.30;;;;;;5015564;28;20029;-91
2021/09/14 12:56:30;;;;;;;2.97;2.50;;;32.00;70.30;;;;;;4987627;28;20109;-92
2021/09/14 12:58:56;;;;;;;2.42;2.10;;;32.30;68.10;;;;;;5000296;28;20087;-92
2021/09/14 13:01:22;;;;;;;4.90;2.88;;;32.30;69.10;;;;;;5014244;28;20053;-92
2021/09/14 13:03:48;;;;;;;2.53;2.33;;;32.30;66.40;;;;;;4985718;28;20082;-91
2021/09/14 13:06:13;;;;;;;2.75;2.30;;;32.60;66.50;;;;;;4974791;28;20045;-91
2021/09/14 13:08:39;;;;;;;3.65;2.80;;;31.60;74.20;;;;;;4965831;28;20117;-91
2021/09/14 13:11:05;;;;;;;4.80;2.60;;;31.80;69.40;;;;;;4957798;28;20184;-93
2021/09/14 13:16:15;;;;;;;4.13;2.40;;;31.40;70.50;;;;;;4985397;28;20029;-91
2021/09/14 13:18:44;;;;;;;4.20;2.50;;;31.10;71.60;;;;;;4991082;28;20026;-91
2021/09/14 13:21:10;;;;;;;4.20;2.40;;;32.10;66.20;;;;;;4960063;28;20417;-91
2021/09/14 13:23:36;;;;;;;3.25;2.03;;;32.10;65.50;;;;;;4959372;28;20758;-91
2021/09/14 13:26:12;;;;;;;2.90;2.58;;;31.80;69.80;;;;;;5006340;28;25289;-91
2021/09/14 13:28:38;;;;;;;3.10;2.67;;;31.30;72.20;;;;;;4955433;28;20030;-91
2021/09/14 13:31:03;;;;;;;2.35;2.17;;;31.30;70.10;;;;;;5001681;28;20680;-92
2021/09/14 13:33:36;;;;;;;2.17;1.98;;;31.70;69.80;;;;;;4961600;28;20030;-92
2021/09/14 13:36:01;;;;;;;4.75;2.40;;;31.20;69.90;;;;;;4963137;28;20482;-92
2021/09/14 13:38:27;;;;;;;4.55;2.42;;;31.00;72.10;;;;;;4960673;28;20038;-92
2021/09/14 13:40:57;;;;;;;2.67;2.08;;;30.70;76.80;;;;;;4965078;28;20025;-91
2021/09/14 13:43:52;;;;;;;2.42;2.33;;;30.60;78.20;;;;;;4977368;28;20156;-93
2021/09/14 13:46:18;;;;;;;2.60;2.30;;;30.60;72.60;;;;;;4993984;28;20041;-92
2021/09/14 13:48:53;;;;;;;2.38;2.17;;;30.50;80.90;;;;;;4962920;28;20034;-92
2021/09/14 13:51:23;;;;;;;2.65;2.45;;;30.90;70.10;;;;;;4962097;28;20030;-91
2021/09/14 13:53:52;;;;;;;2.63;2.42;;;31.20;69.10;;;;;;4963477;28;20431;-92
2021/09/14 13:56:22;;;;;;;2.58;2.33;;;31.40;68.80;;;;;;4979207;28;20042;-92
2021/09/14 13:58:48;;;;;;;3.15;2.13;;;31.20;76.30;;;;;;4965514;28;20056;-91
2021/09/14 14:01:55;;;;;;;2.92;2.72;;;31.10;80.80;;;;;;4963560;28;20398;-92